Time;durP1;ratioP1;P1;durP2;ratioP2;P2;SDS_P1;SDS_P2;PMS_P1;PMS_P2;Temp;Humidity;BMP_temperature;BMP_pressure;BME280_temperature;BME280_humidity;BME280_pressure;Samples;Min_cycle;Max_cycle;Signal;HPM_P1;HPM_P2
2021/01/09 00:00:03;;;;;;;15.50;8.82;;;2.90;99.90;;;;;;4917752;29;20032;-87
2021/01/09 00:02:29;;;;;;;16.42;8.95;;;2.90;99.90;;;;;;4901578;29;20477;-86
2021/01/09 00:04:54;;;;;;;12.10;6.85;;;2.90;99.90;;;;;;4906580;29;20107;-87
2021/01/09 00:07:20;;;;;;;13.77;7.70;;;2.90;99.90;;;;;;4905662;29;20030;-88
2021/01/09 00:09:46;;;;;;;15.13;7.63;;;2.90;99.90;;;;;;4904487;29;20530;-87
2021/01/09 00:12:12;;;;;;;15.23;7.95;;;2.80;99.90;;;;;;4903904;29;20463;-88
2021/01/09 00:14:38;;;;;;;12.52;7.60;;;2.80;99.90;;;;;;4901940;29;20020;-89
2021/01/09 00:17:05;;;;;;;14.77;8.40;;;2.80;99.90;;;;;;4903070;29;20032;-87
2021/01/09 00:19:33;;;;;;;15.43;8.02;;;2.70;99.90;;;;;;4903828;29;20386;-87
2021/01/09 00:21:59;;;;;;;14.55;8.02;;;2.70;99.90;;;;;;4902718;29;20035;-87
2021/01/09 00:24:25;;;;;;;12.20;8.55;;;2.70;99.90;;;;;;4903600;29;20032;-87
2021/01/09 00:26:50;;;;;;;15.10;8.00;;;2.50;99.90;;;;;;4903483;29;20028;-88
2021/01/09 00:29:16;;;;;;;14.02;8.10;;;2.50;99.90;;;;;;4903163;29;20024;-86
2021/01/09 00:31:44;;;;;;;15.27;8.65;;;2.60;99.90;;;;;;4920409;29;20147;-88
2021/01/09 00:34:10;;;;;;;16.65;8.07;;;2.60;99.90;;;;;;4902888;29;20047;-88
2021/01/09 00:36:36;;;;;;;12.57;7.78;;;2.60;99.90;;;;;;4902811;29;20402;-87
2021/01/09 00:39:11;;;;;;;15.57;9.10;;;2.50;99.90;;;;;;4902749;29;20067;-87
2021/01/09 00:41:39;;;;;;;14.60;8.25;;;2.50;99.90;;;;;;4902958;29;20027;-88
2021/01/09 00:44:10;;;;;;;13.20;8.70;;;2.60;99.90;;;;;;4918352;29;20039;-86
2021/01/09 00:46:36;;;;;;;13.05;7.93;;;2.60;99.90;;;;;;4920441;29;20103;-86
2021/01/09 00:49:03;;;;;;;14.93;8.23;;;2.60;99.90;;;;;;4902453;29;20486;-86
2021/01/09 00:51:32;;;;;;;15.40;8.45;;;2.60;99.90;;;;;;4902731;29;20076;-86
2021/01/09 00:53:57;;;;;;;13.93;7.82;;;2.60;99.90;;;;;;4902671;29;20115;-87
2021/01/09 00:56:23;;;;;;;19.55;10.13;;;2.60;99.90;;;;;;4902900;29;20047;-87
2021/01/09 00:58:49;;;;;;;13.07;7.40;;;2.50;99.90;;;;;;4887008;29;20039;-88
2021/01/09 01:01:15;;;;;;;13.85;8.00;;;2.50;99.90;;;;;;4903182;29;20043;-86
2021/01/09 01:03:42;;;;;;;12.13;7.88;;;2.60;99.90;;;;;;4903069;29;20024;-88
2021/01/09 01:06:09;;;;;;;15.57;8.80;;;2.60;99.90;;;;;;4905620;29;20024;-88
2021/01/09 01:08:34;;;;;;;14.13;7.38;;;2.50;99.90;;;;;;4907029;29;20064;-88
2021/01/09 01:11:00;;;;;;;14.02;8.20;;;2.50;99.90;;;;;;4888816;29;20029;-88
2021/01/09 01:13:26;;;;;;;12.32;7.63;;;2.40;99.90;;;;;;4902634;29;20052;-87
2021/01/09 01:15:52;;;;;;;15.18;7.15;;;2.40;99.90;;;;;;4902032;29;20038;-88
2021/01/09 01:18:23;;;;;;;16.15;8.13;;;2.50;99.90;;;;;;4902177;29;20402;-88
2021/01/09 01:20:49;;;;;;;14.85;7.65;;;2.60;99.90;;;;;;4917924;29;20035;-87
2021/01/09 01:23:16;;;;;;;15.07;7.68;;;2.50;99.90;;;;;;4903029;29;20039;-88
2021/01/09 01:25:42;;;;;;;12.95;5.95;;;2.60;99.90;;;;;;4901286;29;20083;-88
2021/01/09 01:28:07;;;;;;;14.20;8.45;;;2.70;99.90;;;;;;4901687;29;20119;-87
2021/01/09 01:30:33;;;;;;;12.60;6.97;;;2.60;99.90;;;;;;4917713;29;20024;-88
2021/01/09 01:32:59;;;;;;;9.98;6.35;;;2.40;99.90;;;;;;4901591;29;20493;-87
2021/01/09 01:35:24;;;;;;;10.73;7.00;;;2.60;99.90;;;;;;4902167;29;20032;-87
2021/01/09 01:37:50;;;;;;;13.35;6.70;;;2.60;99.90;;;;;;4901957;29;20471;-87
2021/01/09 01:40:16;;;;;;;10.93;6.05;;;2.60;99.90;;;;;;4885286;29;20380;-87
2021/01/09 01:42:41;;;;;;;11.35;6.70;;;2.60;99.90;;;;;;4901835;29;20035;-87
2021/01/09 01:45:08;;;;;;;9.18;5.70;;;2.60;99.90;;;;;;4901545;29;20363;-88
2021/01/09 01:47:37;;;;;;;11.52;5.97;;;2.60;99.90;;;;;;4919352;29;20040;-87
2021/01/09 01:50:04;;;;;;;13.02;7.93;;;2.60;99.90;;;;;;4904782;29;20048;-88
2021/01/09 01:52:29;;;;;;;16.58;7.38;;;2.50;99.90;;;;;;4896837;29;20056;-88
2021/01/09 01:54:55;;;;;;;12.52;6.97;;;2.50;99.90;;;;;;4923447;29;20032;-89
2021/01/09 01:57:21;;;;;;;10.27;6.82;;;2.50;99.90;;;;;;4920419;29;20032;-88
2021/01/09 01:59:47;;;;;;;14.30;7.15;;;2.50;99.90;;;;;;4902075;29;20035;-87
2021/01/09 02:02:13;;;;;;;15.70;7.13;;;2.50;99.90;;;;;;4918120;29;20035;-87
2021/01/09 02:04:42;;;;;;;11.80;6.72;;;2.50;99.90;;;;;;4901999;29;20032;-88
2021/01/09 02:07:15;;;;;;;11.00;7.03;;;2.50;99.90;;;;;;4901210;29;20112;-88
2021/01/09 02:09:48;;;;;;;12.43;7.82;;;2.50;99.90;;;;;;4901567;29;20378;-87
2021/01/09 02:12:30;;;;;;;14.68;6.70;;;2.50;99.90;;;;;;4917083;29;20032;-89
2021/01/09 02:14:57;;;;;;;14.73;7.28;;;2.50;99.90;;;;;;4918346;29;20110;-90
2021/01/09 02:17:25;;;;;;;11.90;6.70;;;2.50;99.90;;;;;;4901879;29;20080;-87
2021/01/09 02:19:51;;;;;;;10.45;6.43;;;2.40;99.90;;;;;;4901813;29;20047;-87
2021/01/09 02:22:18;;;;;;;13.30;6.70;;;2.40;99.90;;;;;;4901938;29;20072;-88
2021/01/09 02:24:46;;;;;;;14.15;7.03;;;2.30;99.90;;;;;;4900968;29;20119;-87
2021/01/09 02:27:14;;;;;;;13.40;7.63;;;2.30;99.90;;;;;;4901884;29;20116;-88
2021/01/09 02:30:07;;;;;;;14.85;8.18;;;2.30;99.90;;;;;;4900957;29;20032;-86
2021/01/09 02:32:51;;;;;;;13.77;8.32;;;2.20;99.90;;;;;;4901122;29;20024;-87
2021/01/09 02:35:20;;;;;;;14.07;8.75;;;2.20;99.90;;;;;;4901077;29;20059;-87
2021/01/09 02:37:46;;;;;;;15.90;8.13;;;2.30;99.90;;;;;;4901102;29;20352;-87
2021/01/09 02:40:17;;;;;;;14.05;8.32;;;2.20;99.90;;;;;;4900664;29;20052;-86
2021/01/09 02:42:43;;;;;;;17.00;7.63;;;2.20;99.90;;;;;;4901106;29;20035;-88
2021/01/09 02:45:09;;;;;;;14.50;8.43;;;2.10;99.90;;;;;;4900691;29;20024;-87
2021/01/09 02:47:35;;;;;;;14.25;7.93;;;2.10;99.90;;;;;;4900984;29;20051;-87
2021/01/09 02:50:05;;;;;;;14.68;8.38;;;2.10;99.90;;;;;;4900397;29;20056;-88
2021/01/09 02:52:31;;;;;;;11.77;7.90;;;2.00;99.90;;;;;;4900931;29;20027;-87
2021/01/09 02:54:57;;;;;;;15.20;8.50;;;2.10;99.90;;;;;;4902424;29;20024;-87
2021/01/09 02:57:25;;;;;;;14.25;8.55;;;2.10;99.90;;;;;;4904769;29;20067;-87
2021/01/09 02:59:50;;;;;;;17.45;9.43;;;2.10;99.90;;;;;;4912006;29;20020;-88
2021/01/09 03:02:16;;;;;;;15.05;8.60;;;2.10;99.90;;;;;;4913389;29;20069;-88
2021/01/09 03:04:42;;;;;;;12.65;7.90;;;2.10;99.90;;;;;;4902365;29;20036;-87
2021/01/09 03:07:07;;;;;;;14.95;8.15;;;2.10;99.90;;;;;;4900734;29;20024;-88
2021/01/09 03:09:33;;;;;;;15.60;8.63;;;2.10;99.90;;;;;;4900853;29;20119;-87
2021/01/09 03:11:59;;;;;;;18.13;7.65;;;2.00;99.90;;;;;;4916580;29;20098;-87
2021/01/09 03:14:24;;;;;;;13.90;7.88;;;2.00;99.90;;;;;;4916013;29;20032;-87
2021/01/09 03:16:50;;;;;;;14.40;7.15;;;2.00;99.90;;;;;;4900408;29;20031;-88
2021/01/09 03:19:15;;;;;;;13.43;7.82;;;2.00;99.90;;;;;;4899854;29;20036;-87
2021/01/09 03:21:41;;;;;;;17.95;10.00;;;2.00;99.90;;;;;;4900615;29;20519;-87
2021/01/09 03:24:07;;;;;;;13.35;7.85;;;2.10;99.90;;;;;;4900506;29;20031;-88
2021/01/09 03:26:33;;;;;;;18.08;9.32;;;2.10;99.90;;;;;;4900736;29;20076;-88
2021/01/09 03:28:59;;;;;;;11.70;7.40;;;2.10;99.90;;;;;;4900420;29;20033;-87
2021/01/09 03:31:27;;;;;;;13.60;7.95;;;2.10;99.90;;;;;;4917472;29;20062;-88
2021/01/09 03:33:52;;;;;;;13.40;7.80;;;2.10;99.90;;;;;;4901195;29;20024;-87
2021/01/09 03:36:18;;;;;;;13.50;7.82;;;2.20;99.90;;;;;;4916381;29;20378;-88
2021/01/09 03:38:44;;;;;;;14.63;7.35;;;2.10;99.90;;;;;;4900293;29;20044;-87
2021/01/09 03:41:10;;;;;;;14.63;7.20;;;2.10;99.90;;;;;;4899797;29;20588;-88
2021/01/09 03:43:35;;;;;;;12.02;6.68;;;2.10;99.90;;;;;;4917127;29;20487;-87
2021/01/09 03:46:03;;;;;;;13.48;8.15;;;2.10;99.90;;;;;;4902352;29;20028;-88
2021/01/09 03:48:29;;;;;;;11.85;7.43;;;2.00;99.90;;;;;;4903587;29;20032;-87
2021/01/09 03:50:55;;;;;;;10.57;6.70;;;2.00;99.90;;;;;;4907989;29;20056;-88
2021/01/09 03:53:20;;;;;;;11.20;7.18;;;2.00;99.90;;;;;;4922477;29;20047;-88
2021/01/09 03:55:46;;;;;;;15.52;8.45;;;2.00;99.90;;;;;;4905469;29;20032;-88
2021/01/09 03:58:12;;;;;;;11.57;7.05;;;2.10;99.90;;;;;;4919222;29;20036;-87
2021/01/09 04:00:37;;;;;;;13.27;7.57;;;2.00;99.90;;;;;;4919422;29;20052;-88
2021/01/09 04:03:03;;;;;;;12.70;7.65;;;1.90;99.90;;;;;;4919559;29;20076;-88
2021/01/09 04:05:29;;;;;;;15.57;7.32;;;1.80;99.90;;;;;;4903525;29;20174;-88
2021/01/09 04:07:54;;;;;;;12.23;7.20;;;1.80;99.90;;;;;;4903451;29;20122;-87
2021/01/09 04:10:20;;;;;;;11.88;6.85;;;1.90;99.90;;;;;;4903402;29;20028;-88
2021/01/09 04:12:46;;;;;;;13.43;7.38;;;1.80;99.90;;;;;;4919318;29;20020;-88
2021/01/09 04:15:12;;;;;;;14.00;7.40;;;1.80;99.90;;;;;;4903060;29;20051;-88
2021/01/09 04:17:38;;;;;;;12.00;7.75;;;1.80;99.90;;;;;;4903599;29;20477;-88
2021/01/09 04:20:05;;;;;;;11.90;7.32;;;1.70;99.90;;;;;;4920094;29;20032;-88
2021/01/09 04:22:30;;;;;;;11.88;7.32;;;1.70;99.90;;;;;;4920415;29;20111;-88
2021/01/09 04:24:56;;;;;;;13.50;8.00;;;1.80;99.90;;;;;;4903161;29;20064;-87
2021/01/09 04:27:22;;;;;;;14.02;7.35;;;1.80;99.90;;;;;;4920076;29;20031;-87
2021/01/09 04:29:47;;;;;;;14.00;7.05;;;1.70;99.90;;;;;;4903161;29;20028;-88
2021/01/09 04:32:13;;;;;;;15.48;7.47;;;1.70;99.90;;;;;;4918512;29;20036;-88
2021/01/09 04:34:39;;;;;;;13.35;7.57;;;1.60;99.90;;;;;;4903323;29;20051;-87
2021/01/09 04:37:05;;;;;;;12.50;6.65;;;1.60;99.90;;;;;;4903373;29;20466;-87
2021/01/09 04:39:30;;;;;;;13.60;6.88;;;1.70;99.90;;;;;;4918707;29;20419;-87
2021/01/09 04:41:56;;;;;;;11.68;6.65;;;1.70;99.90;;;;;;4918905;29;20024;-88
2021/01/09 04:44:22;;;;;;;12.88;7.22;;;1.70;99.90;;;;;;4886410;29;20036;-88
2021/01/09 04:46:56;;;;;;;18.13;6.93;;;1.70;99.90;;;;;;4920316;29;20066;-88
2021/01/09 04:49:27;;;;;;;13.52;6.95;;;1.70;99.90;;;;;;4903382;29;20035;-88
2021/01/09 04:51:54;;;;;;;12.25;7.20;;;1.70;99.90;;;;;;4903917;29;20036;-88
2021/01/09 04:54:22;;;;;;;14.32;6.85;;;1.70;99.90;;;;;;4902851;29;20095;-88
2021/01/09 04:56:50;;;;;;;13.15;7.45;;;1.70;99.90;;;;;;4902449;29;20024;-87
2021/01/09 04:59:17;;;;;;;13.45;6.25;;;1.60;99.90;;;;;;4902330;29;20040;-88
2021/01/09 05:01:46;;;;;;;13.07;6.30;;;1.60;99.90;;;;;;4902176;29;20024;-88
2021/01/09 05:04:13;;;;;;;11.43;6.47;;;1.60;99.90;;;;;;4902881;29;20059;-87
2021/01/09 05:06:40;;;;;;;14.93;7.28;;;1.60;99.90;;;;;;4902577;29;20039;-88
2021/01/09 05:09:08;;;;;;;13.55;7.00;;;1.60;99.90;;;;;;4923224;29;20028;-88
2021/01/09 05:11:38;;;;;;;13.93;6.57;;;1.60;99.90;;;;;;4926986;29;20056;-88
2021/01/09 05:14:07;;;;;;;13.82;7.00;;;1.60;99.90;;;;;;4931870;29;20466;-88
2021/01/09 05:16:34;;;;;;;11.02;7.03;;;1.70;99.90;;;;;;4903744;29;20079;-88
2021/01/09 05:19:01;;;;;;;14.95;6.75;;;1.70;99.90;;;;;;4902528;29;20039;-88
2021/01/09 05:21:28;;;;;;;11.65;6.60;;;1.70;99.90;;;;;;4902068;29;20035;-88
2021/01/09 05:23:58;;;;;;;15.40;7.07;;;1.70;99.90;;;;;;4902254;29;20032;-87
2021/01/09 05:26:24;;;;;;;12.10;6.80;;;1.80;99.90;;;;;;4901618;29;20048;-87
2021/01/09 05:28:55;;;;;;;11.15;6.32;;;1.70;99.90;;;;;;4917804;29;20039;-87
2021/01/09 05:31:22;;;;;;;15.10;7.28;;;1.70;99.90;;;;;;4902833;29;20071;-87
2021/01/09 05:33:49;;;;;;;11.90;6.43;;;1.70;99.90;;;;;;4901959;29;20035;-87
2021/01/09 05:36:15;;;;;;;11.20;6.10;;;1.60;99.90;;;;;;4917597;29;20024;-87
2021/01/09 05:38:42;;;;;;;12.98;6.93;;;1.60;99.90;;;;;;4901632;29;20068;-87
2021/01/09 05:41:10;;;;;;;12.48;6.70;;;1.60;99.90;;;;;;4919473;29;20059;-87
2021/01/09 05:43:36;;;;;;;13.77;7.00;;;1.60;99.90;;;;;;4901926;29;20459;-87
2021/01/09 05:46:03;;;;;;;10.82;6.30;;;1.70;99.90;;;;;;4901835;29;20132;-87
2021/01/09 05:48:31;;;;;;;13.00;6.03;;;1.60;99.90;;;;;;4901716;29;20394;-87
2021/01/09 05:50:58;;;;;;;11.18;5.90;;;1.60;99.90;;;;;;4901837;29;20458;-88
2021/01/09 05:53:42;;;;;;;11.68;6.53;;;1.70;99.90;;;;;;4901283;29;20036;-87
2021/01/09 05:56:10;;;;;;;15.40;6.28;;;1.80;99.90;;;;;;4907178;29;20028;-88
2021/01/09 05:58:37;;;;;;;12.00;6.38;;;1.70;99.90;;;;;;4923530;29;20036;-88
2021/01/09 06:01:08;;;;;;;12.70;6.72;;;1.80;99.90;;;;;;4902492;29;20040;-88
2021/01/09 06:03:44;;;;;;;11.00;5.82;;;1.80;99.90;;;;;;4918638;29;20077;-89
2021/01/09 06:06:30;;;;;;;12.52;6.30;;;1.80;99.90;;;;;;4902303;29;20470;-88
2021/01/09 06:09:05;;;;;;;11.70;6.10;;;1.80;99.90;;;;;;4901889;29;20501;-89
2021/01/09 06:11:34;;;;;;;12.05;5.88;;;1.80;99.90;;;;;;4919069;29;20068;-88
2021/01/09 06:14:02;;;;;;;9.05;5.32;;;1.70;99.90;;;;;;4919231;29;20024;-88
2021/01/09 06:16:30;;;;;;;10.50;6.45;;;1.70;99.90;;;;;;4902270;29;20036;-88
2021/01/09 06:18:57;;;;;;;12.77;6.30;;;1.70;99.90;;;;;;4902622;29;20475;-88
2021/01/09 06:21:25;;;;;;;11.57;7.03;;;1.70;99.90;;;;;;4902195;29;20028;-89
2021/01/09 06:23:53;;;;;;;10.13;6.53;;;1.70;99.90;;;;;;4903054;29;20035;-88
2021/01/09 06:26:19;;;;;;;10.32;6.50;;;1.80;99.90;;;;;;4919620;29;20020;-88
2021/01/09 06:28:58;;;;;;;10.07;6.22;;;1.80;99.90;;;;;;4903691;29;20047;-88
2021/01/09 06:31:28;;;;;;;11.52;6.88;;;1.80;99.90;;;;;;4923191;29;20024;-88
2021/01/09 06:34:01;;;;;;;14.55;7.15;;;1.70;99.90;;;;;;4924951;29;20031;-87
2021/01/09 06:36:27;;;;;;;17.38;6.80;;;1.70;99.90;;;;;;4904887;29;20119;-88
2021/01/09 06:38:58;;;;;;;14.00;6.63;;;1.70;99.90;;;;;;4903939;29;20127;-88
2021/01/09 06:41:25;;;;;;;16.30;6.45;;;1.70;99.90;;;;;;4904383;29;20050;-88
2021/01/09 06:43:53;;;;;;;10.60;6.15;;;1.70;99.90;;;;;;4911179;29;20031;-88
2021/01/09 06:46:32;;;;;;;19.00;6.28;;;1.70;99.90;;;;;;4917462;29;20025;-88
2021/01/09 06:48:58;;;;;;;15.68;6.40;;;1.70;99.90;;;;;;4912488;29;20055;-88
2021/01/09 06:51:42;;;;;;;15.85;6.80;;;1.60;99.90;;;;;;4913704;29;20503;-87
2021/01/09 06:54:13;;;;;;;16.13;6.30;;;1.60;99.90;;;;;;4908367;29;20369;-87
2021/01/09 06:56:39;;;;;;;13.65;5.47;;;1.60;99.90;;;;;;4918308;29;20052;-89
2021/01/09 06:59:05;;;;;;;16.10;6.93;;;1.60;99.90;;;;;;4923689;29;20040;-88
2021/01/09 07:01:38;;;;;;;13.43;6.22;;;1.50;99.90;;;;;;4922833;29;20040;-90
2021/01/09 07:04:05;;;;;;;14.93;6.95;;;1.50;99.90;;;;;;4921760;29;20028;-88
2021/01/09 07:06:56;;;;;;;16.92;6.68;;;1.50;99.90;;;;;;4937445;29;20057;-88
2021/01/09 07:09:27;;;;;;;14.52;5.88;;;1.60;99.90;;;;;;4918985;29;20039;-89
2021/01/09 07:11:54;;;;;;;17.73;6.95;;;1.70;99.90;;;;;;4929478;29;20031;-87
2021/01/09 07:14:22;;;;;;;12.35;6.00;;;1.60;99.90;;;;;;4913090;29;20023;-88
2021/01/09 07:16:48;;;;;;;19.02;6.65;;;1.60;99.90;;;;;;4923509;29;20031;-89
2021/01/09 07:19:14;;;;;;;11.55;6.18;;;1.60;99.90;;;;;;4923609;29;20028;-88
2021/01/09 07:21:45;;;;;;;11.40;6.13;;;1.60;99.90;;;;;;4923624;29;20045;-87
2021/01/09 07:24:16;;;;;;;16.60;6.45;;;1.60;99.90;;;;;;4923023;29;20076;-87
2021/01/09 07:26:42;;;;;;;13.95;5.93;;;1.50;99.90;;;;;;4925772;29;20105;-88
2021/01/09 07:29:08;;;;;;;13.68;6.43;;;1.50;99.90;;;;;;4927859;29;20032;-88
2021/01/09 07:31:39;;;;;;;13.25;6.47;;;1.50;99.90;;;;;;4927386;29;20035;-88
2021/01/09 07:34:12;;;;;;;18.25;6.43;;;1.50;99.90;;;;;;4938195;29;20039;-88
2021/01/09 07:36:39;;;;;;;12.15;6.30;;;1.50;99.90;;;;;;4933369;29;20089;-88
2021/01/09 07:39:07;;;;;;;10.80;6.50;;;1.50;99.90;;;;;;4910330;29;20036;-88
2021/01/09 07:41:37;;;;;;;14.02;6.30;;;1.40;99.90;;;;;;4909807;29;20068;-87
2021/01/09 07:44:18;;;;;;;12.43;5.75;;;1.50;99.90;;;;;;4925544;29;20036;-88
2021/01/09 07:46:51;;;;;;;16.48;7.40;;;1.50;99.90;;;;;;4906913;29;20025;-86
2021/01/09 07:49:37;;;;;;;18.75;7.40;;;1.60;99.90;;;;;;4926617;29;20028;-87
2021/01/09 07:52:07;;;;;;;15.77;7.22;;;1.60;99.90;;;;;;4911534;29;20127;-87
2021/01/09 07:54:40;;;;;;;15.90;6.93;;;1.50;99.90;;;;;;4907772;29;20119;-89
2021/01/09 07:57:30;;;;;;;14.27;6.30;;;1.60;99.90;;;;;;4906150;29;20064;-87
2021/01/09 08:00:10;;;;;;;14.55;7.35;;;1.70;99.90;;;;;;4926926;29;20133;-86
2021/01/09 08:02:37;;;;;;;15.68;7.78;;;1.70;99.90;;;;;;4908604;29;20063;-87
2021/01/09 08:05:06;;;;;;;14.65;6.72;;;1.80;99.90;;;;;;4903418;29;20379;-90
2021/01/09 08:07:36;;;;;;;12.38;6.50;;;1.80;99.90;;;;;;4904348;29;20110;-89
2021/01/09 08:10:19;;;;;;;14.45;6.40;;;1.80;99.90;;;;;;4921086;29;20072;-86
2021/01/09 08:12:46;;;;;;;16.60;6.80;;;1.80;99.90;;;;;;4904406;29;20153;-89
2021/01/09 08:15:14;;;;;;;14.68;6.28;;;1.90;99.90;;;;;;4926232;29;20087;-89
2021/01/09 08:17:41;;;;;;;13.95;5.78;;;2.00;99.90;;;;;;4931332;29;20028;-89
2021/01/09 08:20:10;;;;;;;10.32;5.97;;;2.00;99.90;;;;;;4906684;29;20028;-89
2021/01/09 08:22:38;;;;;;;15.90;6.63;;;1.90;99.90;;;;;;4903761;29;20072;-90
2021/01/09 08:25:26;;;;;;;15.80;5.90;;;1.90;99.90;;;;;;4907551;29;20032;-91
2021/01/09 08:27:56;;;;;;;14.80;6.35;;;2.00;99.90;;;;;;4904183;29;20107;-89
2021/01/09 08:30:28;;;;;;;15.35;7.75;;;2.00;99.90;;;;;;4921231;29;20024;-90
2021/01/09 08:33:11;;;;;;;18.42;6.40;;;2.00;99.90;;;;;;4903891;29;20028;-90
2021/01/09 08:35:45;;;;;;;12.02;6.30;;;2.00;99.90;;;;;;4923903;29;20024;-91
2021/01/09 08:38:11;;;;;;;16.30;6.90;;;2.00;99.90;;;;;;4905495;29;20028;-91
2021/01/09 08:40:42;;;;;;;15.32;7.30;;;2.00;99.90;;;;;;4904954;29;20071;-92
2021/01/09 08:43:12;;;;;;;13.95;7.00;;;2.10;99.90;;;;;;4904571;29;20040;-90
2021/01/09 08:45:49;;;;;;;17.25;7.57;;;2.20;99.90;;;;;;4920060;29;20024;-89
2021/01/09 08:48:40;;;;;;;13.85;6.63;;;2.20;99.90;;;;;;4904734;29;20036;-90
2021/01/09 08:51:16;;;;;;;18.73;6.95;;;2.30;99.90;;;;;;4925371;29;20032;-89
2021/01/09 08:53:47;;;;;;;14.10;7.78;;;2.40;99.90;;;;;;4906267;29;20046;-89
2021/01/09 08:56:14;;;;;;;17.15;6.72;;;2.50;99.90;;;;;;4909379;29;20035;-89
2021/01/09 08:58:40;;;;;;;13.85;7.97;;;2.60;99.90;;;;;;4903609;29;20029;-89
2021/01/09 09:01:08;;;;;;;15.23;6.78;;;2.70;99.90;;;;;;4903205;29;20024;-90
2021/01/09 09:04:00;;;;;;;17.85;7.05;;;2.70;99.90;;;;;;4908316;29;20024;-89
2021/01/09 09:06:28;;;;;;;15.55;6.47;;;2.70;99.90;;;;;;4903785;29;20039;-89
2021/01/09 09:08:55;;;;;;;17.52;6.07;;;2.90;99.90;;;;;;4907229;29;20507;-88
2021/01/09 09:11:25;;;;;;;14.73;6.72;;;2.90;99.90;;;;;;4904002;29;20028;-90
2021/01/09 09:14:08;;;;;;;10.30;4.90;;;3.00;99.90;;;;;;4919349;29;20356;-89
2021/01/09 09:16:35;;;;;;;15.65;6.05;;;3.10;99.90;;;;;;4903343;29;20039;-88
2021/01/09 09:19:19;;;;;;;14.32;5.40;;;3.20;99.90;;;;;;4902442;29;20327;-88
2021/01/09 09:21:47;;;;;;;11.83;4.83;;;3.20;99.90;;;;;;4905839;29;20051;-88
2021/01/09 09:24:13;;;;;;;10.80;5.22;;;3.30;99.90;;;;;;4902843;29;20291;-90
2021/01/09 09:26:40;;;;;;;12.05;5.25;;;3.40;99.90;;;;;;4903131;29;20514;-88
2021/01/09 09:29:08;;;;;;;10.65;4.97;;;3.40;99.90;;;;;;4933736;29;20028;-88
2021/01/09 09:31:55;;;;;;;15.38;5.65;;;3.40;99.90;;;;;;4932856;29;20020;-90
2021/01/09 09:34:27;;;;;;;11.77;5.70;;;3.50;99.90;;;;;;4923419;29;20040;-89
2021/01/09 09:36:53;;;;;;;15.10;6.72;;;3.50;99.90;;;;;;4921713;29;20063;-87
2021/01/09 09:39:23;;;;;;;21.00;9.07;;;3.40;99.90;;;;;;4904193;29;20032;-89
2021/01/09 09:42:03;;;;;;;16.85;7.72;;;3.40;99.90;;;;;;4903895;29;20032;-89
2021/01/09 09:44:53;;;;;;;14.95;7.78;;;3.40;99.90;;;;;;4920177;29;20028;-89
2021/01/09 09:47:27;;;;;;;14.35;5.90;;;3.50;99.90;;;;;;4908716;29;20021;-88
2021/01/09 09:49:58;;;;;;;12.95;4.63;;;3.40;99.90;;;;;;4914879;29;20028;-88
2021/01/09 09:52:32;;;;;;;15.27;4.28;;;3.50;99.90;;;;;;4912378;29;20032;-89
2021/01/09 09:55:06;;;;;;;11.07;3.33;;;3.60;99.90;;;;;;4918918;29;20031;-90
2021/01/09 09:57:35;;;;;;;9.35;3.03;;;3.70;99.90;;;;;;4903068;29;20032;-88
2021/01/09 10:00:04;;;;;;;9.48;3.30;;;3.90;99.90;;;;;;4920321;29;20038;-89
2021/01/09 10:02:32;;;;;;;9.95;2.45;;;4.00;99.90;;;;;;4913261;29;20034;-89
2021/01/09 10:05:14;;;;;;;10.88;2.35;;;4.20;99.90;;;;;;4939106;29;20071;-89
2021/01/09 10:07:43;;;;;;;8.70;2.42;;;4.30;99.90;;;;;;4938064;29;20032;-90
2021/01/09 10:10:19;;;;;;;8.77;2.25;;;4.30;99.90;;;;;;4922226;29;20027;-88
2021/01/09 10:13:00;;;;;;;11.73;2.95;;;4.40;99.90;;;;;;4921288;29;20031;-88
2021/01/09 10:15:30;;;;;;;7.82;2.55;;;4.50;99.90;;;;;;4922422;29;20099;-88
2021/01/09 10:18:02;;;;;;;11.05;2.50;;;4.50;99.90;;;;;;4921908;29;20028;-88
2021/01/09 10:20:29;;;;;;;9.88;3.05;;;4.50;99.90;;;;;;4920949;29;20043;-88
2021/01/09 10:22:54;;;;;;;11.35;2.70;;;4.40;99.90;;;;;;4921123;29;20454;-88
2021/01/09 10:26:02;;;;;;;;;;;;;;;;;;;;;
2021/01/09 10:28:29;;;;;;;12.52;2.90;;;4.60;99.90;;;;;;4925767;29;20542;-89
2021/01/09 10:30:54;;;;;;;13.73;3.60;;;4.60;99.90;;;;;;4939525;29;20047;-89
2021/01/09 10:33:25;;;;;;;10.93;4.00;;;4.70;99.90;;;;;;4921742;29;20458;-90
2021/01/09 10:35:56;;;;;;;16.65;3.47;;;4.70;99.90;;;;;;4921703;29;20020;-91
2021/01/09 10:38:23;;;;;;;10.55;3.45;;;4.80;99.90;;;;;;4923443;29;20034;-89
2021/01/09 10:40:49;;;;;;;14.60;2.80;;;4.80;99.90;;;;;;4920406;29;20054;-89
2021/01/09 10:43:17;;;;;;;12.77;3.05;;;4.90;99.90;;;;;;4920426;29;20035;-88
2021/01/09 10:45:43;;;;;;;10.15;2.58;;;5.00;99.90;;;;;;4920660;29;20446;-90
2021/01/09 10:48:15;;;;;;;13.40;2.78;;;5.10;99.90;;;;;;4920707;29;20092;-89
2021/01/09 10:50:45;;;;;;;17.02;3.08;;;5.20;99.90;;;;;;4937845;29;20027;-89
2021/01/09 10:53:10;;;;;;;11.85;2.05;;;5.20;99.90;;;;;;4927919;29;20030;-91
2021/01/09 10:55:40;;;;;;;9.68;1.92;;;5.30;99.90;;;;;;4924312;29;20106;-90
2021/01/09 10:58:06;;;;;;;3.40;1.70;;;5.20;99.90;;;;;;4921674;29;20032;-89
2021/01/09 11:00:34;;;;;;;3.40;1.30;;;5.20;99.90;;;;;;4937532;29;20027;-90
2021/01/09 11:03:00;;;;;;;7.10;1.42;;;5.20;99.90;;;;;;4920141;29;20110;-90
2021/01/09 11:05:31;;;;;;;7.25;1.88;;;5.20;99.90;;;;;;4921292;29;20047;-90
2021/01/09 11:08:01;;;;;;;6.82;1.60;;;5.20;99.90;;;;;;4920840;29;20051;-90
2021/01/09 11:10:27;;;;;;;5.72;1.45;;;5.30;99.90;;;;;;4922294;29;20035;-90
2021/01/09 11:12:53;;;;;;;8.85;1.63;;;5.30;99.90;;;;;;4923980;29;20019;-89
2021/01/09 11:15:21;;;;;;;12.50;1.63;;;5.40;99.90;;;;;;4941441;29;20152;-90
2021/01/09 11:17:50;;;;;;;6.63;1.60;;;5.40;99.90;;;;;;4924756;29;20039;-88
2021/01/09 11:20:19;;;;;;;8.07;2.17;;;5.50;99.90;;;;;;4922010;29;20027;-89
2021/01/09 11:22:45;;;;;;;8.90;2.15;;;5.60;99.90;;;;;;4920478;29;20063;-89
2021/01/09 11:25:13;;;;;;;10.23;2.42;;;5.50;99.90;;;;;;4919846;29;20166;-89
2021/01/09 11:27:39;;;;;;;8.38;1.80;;;5.50;99.90;;;;;;4923806;29;20027;-89
2021/01/09 11:30:08;;;;;;;8.85;1.90;;;5.60;99.90;;;;;;4922902;29;20115;-90
2021/01/09 11:32:33;;;;;;;12.52;1.90;;;5.80;99.90;;;;;;4936026;29;20028;-90
2021/01/09 11:35:06;;;;;;;7.32;1.88;;;5.80;99.90;;;;;;4936160;29;20034;-89
2021/01/09 11:37:38;;;;;;;9.75;2.30;;;5.80;99.90;;;;;;4935163;29;20477;-89
2021/01/09 11:40:10;;;;;;;11.00;2.22;;;5.80;99.90;;;;;;4921144;29;20051;-89
2021/01/09 11:42:43;;;;;;;4.78;1.70;;;5.90;99.90;;;;;;4921520;29;20032;-90
2021/01/09 11:45:09;;;;;;;6.30;1.63;;;5.80;99.90;;;;;;4921094;29;20027;-89
2021/01/09 11:47:35;;;;;;;5.70;1.50;;;5.80;99.90;;;;;;4921127;29;20028;-89
2021/01/09 11:50:01;;;;;;;9.40;1.63;;;5.80;99.90;;;;;;4919772;29;20083;-89
2021/01/09 11:52:27;;;;;;;7.88;1.70;;;5.80;99.90;;;;;;4920064;29;20020;-88
2021/01/09 11:54:53;;;;;;;9.38;1.75;;;5.80;99.90;;;;;;4920288;29;20024;-89
2021/01/09 11:57:18;;;;;;;7.95;1.95;;;5.80;99.90;;;;;;4920072;29;20042;-88
2021/01/09 11:59:44;;;;;;;6.75;1.85;;;5.90;99.90;;;;;;4921116;29;20043;-90
2021/01/09 12:02:10;;;;;;;7.68;2.08;;;5.80;99.90;;;;;;4936029;29;20024;-90
2021/01/09 12:04:36;;;;;;;7.65;2.08;;;6.10;99.90;;;;;;4920250;29;20163;-90
2021/01/09 12:07:04;;;;;;;9.05;2.40;;;6.50;99.90;;;;;;4936659;29;20031;-90
2021/01/09 12:09:32;;;;;;;11.18;2.10;;;6.70;99.90;;;;;;4921730;29;20031;-90
2021/01/09 12:11:59;;;;;;;7.47;2.25;;;6.70;99.90;;;;;;4940741;29;20038;-90
2021/01/09 12:14:30;;;;;;;11.15;2.22;;;6.60;99.90;;;;;;4942752;29;20056;-89
2021/01/09 12:17:02;;;;;;;12.00;2.83;;;6.60;99.90;;;;;;4936419;29;20102;-90
2021/01/09 12:19:28;;;;;;;6.85;2.08;;;6.50;99.90;;;;;;4927270;29;20051;-90
2021/01/09 12:21:55;;;;;;;10.25;1.98;;;6.40;99.90;;;;;;4951172;29;20020;-90
2021/01/09 12:24:21;;;;;;;11.32;2.50;;;6.40;99.90;;;;;;4941751;29;20028;-91
2021/01/09 12:26:51;;;;;;;8.10;2.00;;;6.40;99.90;;;;;;4947005;29;20034;-91
2021/01/09 12:29:18;;;;;;;12.48;2.03;;;6.40;99.90;;;;;;4924325;29;20148;-91
2021/01/09 12:31:44;;;;;;;5.97;1.80;;;6.40;99.90;;;;;;4923765;29;20027;-91
2021/01/09 12:34:11;;;;;;;9.93;1.60;;;6.50;99.90;;;;;;4923927;29;20115;-91
2021/01/09 12:36:40;;;;;;;7.15;2.20;;;6.30;99.90;;;;;;4923463;29;20020;-90
2021/01/09 12:39:06;;;;;;;6.30;1.63;;;6.20;99.90;;;;;;4922565;29;20482;-90
2021/01/09 12:41:46;;;;;;;4.88;1.20;;;6.00;99.90;;;;;;4922574;29;20524;-92
2021/01/09 12:44:19;;;;;;;5.78;1.50;;;5.90;99.90;;;;;;4922411;29;20114;-89
2021/01/09 12:46:47;;;;;;;5.05;1.17;;;5.70;99.90;;;;;;4939614;29;20027;-90
2021/01/09 12:49:17;;;;;;;6.93;1.17;;;5.70;99.90;;;;;;4924890;29;20035;-89
2021/01/09 12:51:44;;;;;;;6.07;1.38;;;5.70;99.90;;;;;;4926242;29;20027;-90
2021/01/09 12:54:10;;;;;;;5.32;1.40;;;5.80;99.90;;;;;;4922235;29;20470;-90
2021/01/09 12:56:39;;;;;;;6.38;1.60;;;5.80;99.90;;;;;;4923002;29;20131;-91
2021/01/09 12:59:08;;;;;;;4.25;1.40;;;5.90;99.90;;;;;;4922135;29;20099;-91